Time;durP1;ratioP1;P1;durP2;ratioP2;P2;SDS_P1;SDS_P2;PMS_P1;PMS_P2;Temp;Humidity;BMP_temperature;BMP_pressure;BME280_temperature;BME280_humidity;BME280_pressure;Samples;Min_cycle;Max_cycle;Signal;HPM_P1;HPM_P2
2022/07/09 00:01:30;;;;;;;3.42;1.63;;;13.50;74.50;;;;;;5085023;28;20494;-85
2022/07/09 00:03:57;;;;;;;3.63;1.90;;;13.40;76.20;;;;;;5083239;28;20224;-84
2022/07/09 00:06:24;;;;;;;3.70;1.90;;;13.40;76.20;;;;;;5073576;28;20217;-86
2022/07/09 00:08:53;;;;;;;4.40;1.88;;;13.40;76.10;;;;;;5070536;28;20197;-86
2022/07/09 00:11:23;;;;;;;3.05;1.73;;;13.30;76.00;;;;;;5066870;28;20204;-86
2022/07/09 00:13:54;;;;;;;2.47;1.70;;;13.30;76.10;;;;;;5074104;28;20198;-86
2022/07/09 00:16:31;;;;;;;4.13;1.60;;;13.20;76.00;;;;;;5071466;28;20190;-87
2022/07/09 00:18:59;;;;;;;3.58;1.85;;;13.10;76.70;;;;;;5069043;28;20220;-87
2022/07/09 00:21:29;;;;;;;6.60;1.80;;;13.10;77.70;;;;;;5076128;28;20211;-86
2022/07/09 00:23:56;;;;;;;3.60;1.75;;;13.00;77.90;;;;;;5069584;28;20253;-86
2022/07/09 00:26:35;;;;;;;2.85;1.83;;;13.00;78.60;;;;;;5071890;28;20248;-84
2022/07/09 00:29:27;;;;;;;3.53;1.73;;;12.90;79.20;;;;;;5072571;28;20280;-86
2022/07/09 00:32:08;;;;;;;2.63;1.90;;;12.90;80.10;;;;;;5063086;28;20592;-86
2022/07/09 00:35:20;;;;;;;6.38;2.08;;;12.80;81.30;;;;;;5044686;28;20196;-86
2022/07/09 00:37:53;;;;;;;4.22;1.88;;;12.80;81.10;;;;;;5054434;28;20638;-86
2022/07/09 00:40:20;;;;;;;3.67;1.88;;;12.70;82.20;;;;;;5051698;28;20232;-86
2022/07/09 00:42:47;;;;;;;3.28;2.10;;;12.70;83.60;;;;;;5047059;28;20199;-86
2022/07/09 00:45:17;;;;;;;5.45;2.15;;;12.70;83.20;;;;;;5046123;28;20213;-86
2022/07/09 00:47:49;;;;;;;3.15;1.92;;;12.70;83.70;;;;;;5057423;28;20197;-86
2022/07/09 00:50:29;;;;;;;4.05;1.98;;;12.70;84.30;;;;;;5052627;28;20202;-86
2022/07/09 00:53:13;;;;;;;2.78;1.83;;;12.60;84.50;;;;;;5053013;28;20189;-86
2022/07/09 00:55:40;;;;;;;3.25;2.17;;;12.50;85.40;;;;;;5049397;28;20669;-86
2022/07/09 00:58:12;;;;;;;4.22;1.98;;;12.50;87.20;;;;;;5050978;28;20728;-86
2022/07/09 01:00:59;;;;;;;6.20;2.00;;;12.30;87.20;;;;;;5051670;28;20218;-86
2022/07/09 01:04:08;;;;;;;6.30;2.15;;;12.30;86.80;;;;;;5050288;28;20218;-86
2022/07/09 01:06:49;;;;;;;3.60;1.83;;;12.30;87.20;;;;;;5047709;28;20217;-85
2022/07/09 01:09:23;;;;;;;5.55;2.00;;;12.30;87.10;;;;;;5044129;28;20207;-86
2022/07/09 01:12:06;;;;;;;4.28;2.08;;;12.30;88.30;;;;;;5031193;28;20197;-88
2022/07/09 01:14:38;;;;;;;5.63;2.00;;;12.20;88.40;;;;;;5030129;28;20213;-86
2022/07/09 01:17:06;;;;;;;4.82;2.08;;;12.20;88.40;;;;;;5031635;28;20195;-86
2022/07/09 01:19:41;;;;;;;5.50;2.33;;;12.30;88.60;;;;;;5023662;28;20223;-85
2022/07/09 01:22:11;;;;;;;3.20;2.08;;;12.10;89.30;;;;;;5036098;28;20568;-86
2022/07/09 01:25:12;;;;;;;3.95;2.17;;;12.00;90.20;;;;;;5025735;28;20473;-86
2022/07/09 01:27:54;;;;;;;3.20;2.00;;;12.10;90.30;;;;;;5036035;28;20270;-86
2022/07/09 01:30:49;;;;;;;5.70;2.17;;;12.20;90.70;;;;;;5042220;28;20557;-86
2022/07/09 01:33:44;;;;;;;4.85;2.00;;;12.20;90.60;;;;;;5035492;28;20219;-86
2022/07/09 01:36:38;;;;;;;5.65;2.13;;;12.20;90.50;;;;;;5052530;28;20208;-86
2022/07/09 01:39:06;;;;;;;3.63;2.10;;;12.30;90.80;;;;;;5038606;28;20202;-85
2022/07/09 01:45:08;;;;;;;3.33;1.98;;;12.30;90.80;;;;;;5045218;28;20199;-85
2022/07/09 01:47:44;;;;;;;4.93;2.20;;;12.40;90.80;;;;;;5042573;28;20258;-86
2022/07/09 01:50:12;;;;;;;4.22;2.25;;;12.40;90.70;;;;;;5048486;28;20202;-86
2022/07/09 01:53:05;;;;;;;3.72;2.00;;;12.50;90.90;;;;;;5034005;28;20191;-85
2022/07/09 01:56:11;;;;;;;4.35;2.28;;;12.50;90.90;;;;;;5044235;28;20202;-86
2022/07/09 01:58:44;;;;;;;4.18;2.30;;;12.60;90.90;;;;;;5039003;28;20198;-86
2022/07/09 02:01:35;;;;;;;6.85;2.13;;;12.60;90.90;;;;;;5043737;28;20229;-85
2022/07/09 02:04:18;;;;;;;3.35;2.20;;;12.60;90.90;;;;;;5044285;28;20199;-85
2022/07/09 02:07:16;;;;;;;4.32;2.10;;;12.70;90.90;;;;;;5039371;28;20206;-87
2022/07/09 02:10:15;;;;;;;5.63;2.22;;;12.70;90.90;;;;;;5040387;28;20198;-85
2022/07/09 02:12:59;;;;;;;4.82;2.20;;;12.70;90.60;;;;;;5039002;28;20211;-85
2022/07/09 02:15:37;;;;;;;3.47;1.95;;;12.90;90.50;;;;;;5036392;28;20203;-88
2022/07/09 02:18:09;;;;;;;5.15;2.10;;;12.90;90.30;;;;;;5037404;28;20203;-86
2022/07/09 02:21:15;;;;;;;3.92;2.08;;;13.00;90.10;;;;;;5045918;28;20211;-86
2022/07/09 02:24:20;;;;;;;3.83;1.95;;;13.00;90.00;;;;;;5038731;28;20199;-86
2022/07/09 02:27:06;;;;;;;4.25;2.33;;;13.00;88.80;;;;;;5045807;28;20207;-85
2022/07/09 02:32:56;;;;;;;2.53;1.92;;;13.00;88.60;;;;;;5006773;28;20290;-86
2022/07/09 02:39:31;;;;;;;5.50;2.22;;;13.00;89.00;;;;;;5042228;28;20247;-88
2022/07/09 02:42:14;;;;;;;2.95;2.00;;;13.10;88.10;;;;;;5041756;28;20202;-87
2022/07/09 02:50:39;;;;;;;4.57;1.92;;;13.10;88.80;;;;;;4993495;28;20203;-86
2022/07/09 02:53:28;;;;;;;5.53;2.20;;;13.20;89.20;;;;;;5035390;28;20226;-85
2022/07/09 02:55:55;;;;;;;2.65;1.73;;;13.20;88.60;;;;;;5037767;28;20207;-85
2022/07/09 02:58:26;;;;;;;3.65;2.25;;;13.20;88.40;;;;;;5038096;28;20195;-85
2022/07/09 03:00:54;;;;;;;5.13;2.30;;;13.20;88.30;;;;;;5039999;28;20256;-86
2022/07/09 03:03:26;;;;;;;4.05;2.10;;;13.20;87.90;;;;;;5041966;28;20217;-85
2022/07/09 03:05:53;;;;;;;3.72;2.00;;;13.30;87.90;;;;;;5037950;28;20290;-85
2022/07/09 03:08:35;;;;;;;3.08;2.05;;;13.30;88.20;;;;;;5035827;28;20419;-85
2022/07/09 03:11:03;;;;;;;5.63;2.03;;;13.40;88.00;;;;;;5039222;28;20198;-85
2022/07/09 03:13:53;;;;;;;4.78;1.58;;;13.30;87.90;;;;;;5038047;28;20199;-85
2022/07/09 03:16:20;;;;;;;2.92;2.10;;;13.40;87.70;;;;;;5039833;28;20632;-85
2022/07/09 03:18:48;;;;;;;4.88;2.13;;;13.30;88.30;;;;;;5037948;28;20215;-85
2022/07/09 03:21:59;;;;;;;3.63;2.08;;;13.30;88.60;;;;;;5035744;28;20233;-85
2022/07/09 03:24:26;;;;;;;3.08;2.00;;;13.40;88.90;;;;;;5034037;28;20335;-86
2022/07/09 03:26:53;;;;;;;3.30;1.95;;;13.50;88.30;;;;;;5033467;28;20198;-85
2022/07/09 03:29:29;;;;;;;3.05;2.05;;;13.50;89.00;;;;;;5031710;28;20205;-85
2022/07/09 03:31:56;;;;;;;4.07;2.00;;;13.50;88.60;;;;;;5037825;28;20381;-84
2022/07/09 03:34:31;;;;;;;4.30;2.30;;;13.60;89.30;;;;;;5030431;28;20650;-85
2022/07/09 03:37:23;;;;;;;2.40;1.98;;;13.70;88.60;;;;;;5024040;28;20774;-85
2022/07/09 03:39:53;;;;;;;5.28;2.38;;;13.80;87.80;;;;;;5026178;28;20643;-85
2022/07/09 03:42:23;;;;;;;5.13;2.00;;;13.80;86.80;;;;;;5023217;28;20661;-85
2022/07/09 03:44:50;;;;;;;2.95;1.90;;;13.70;87.00;;;;;;5035353;28;20195;-85
2022/07/09 03:47:24;;;;;;;3.38;2.08;;;13.70;89.00;;;;;;5024845;28;20199;-87
2022/07/09 03:50:01;;;;;;;4.45;2.17;;;13.70;88.90;;;;;;5040207;28;20634;-85
2022/07/09 03:52:28;;;;;;;3.88;2.10;;;13.70;88.80;;;;;;5041960;28;20187;-86
2022/07/09 03:58:23;;;;;;;3.35;2.00;;;13.70;89.40;;;;;;5048461;28;20271;-86
2022/07/09 04:01:23;;;;;;;5.95;2.42;;;13.70;89.70;;;;;;5045542;28;20233;-86
2022/07/09 04:03:50;;;;;;;3.90;2.00;;;13.80;88.90;;;;;;5034493;28;20191;-85
2022/07/09 04:06:20;;;;;;;3.13;2.20;;;13.90;88.70;;;;;;5028822;28;20190;-85
2022/07/09 04:08:46;;;;;;;3.53;2.33;;;13.90;88.70;;;;;;5034965;28;20213;-88
2022/07/09 04:11:41;;;;;;;5.10;2.05;;;13.90;88.40;;;;;;5033883;28;20261;-86
2022/07/09 04:14:23;;;;;;;3.45;2.15;;;14.00;87.60;;;;;;5030917;28;20227;-86
2022/07/09 04:16:53;;;;;;;4.47;2.25;;;14.00;86.20;;;;;;5016619;28;20199;-86
2022/07/09 04:19:20;;;;;;;3.88;2.13;;;14.20;84.70;;;;;;5021365;28;20666;-86
2022/07/09 04:22:02;;;;;;;5.43;2.38;;;14.20;84.40;;;;;;5024060;28;20284;-86
2022/07/09 04:24:35;;;;;;;4.93;2.85;;;14.20;84.70;;;;;;5029831;28;20221;-86
2022/07/09 04:27:06;;;;;;;3.88;2.05;;;14.20;84.90;;;;;;5022578;28;20683;-86
2022/07/09 04:29:33;;;;;;;3.95;2.13;;;14.20;84.50;;;;;;5026882;28;20199;-86
2022/07/09 04:32:00;;;;;;;4.10;2.38;;;14.20;85.70;;;;;;5025382;28;20715;-86
2022/07/09 04:34:35;;;;;;;2.70;2.00;;;14.30;84.40;;;;;;5023438;28;20677;-86
2022/07/09 04:37:07;;;;;;;4.38;2.22;;;14.50;82.90;;;;;;5025019;28;20539;-86
2022/07/09 04:39:41;;;;;;;5.45;2.13;;;14.50;82.40;;;;;;5015074;28;20206;-87
2022/07/09 04:42:19;;;;;;;3.38;2.38;;;14.50;83.10;;;;;;5018240;28;20225;-85
2022/07/09 04:45:05;;;;;;;4.70;2.25;;;14.60;82.50;;;;;;5032306;28;20194;-86
2022/07/09 04:47:35;;;;;;;3.47;2.13;;;14.60;81.50;;;;;;5023060;28;20542;-86
2022/07/09 04:50:47;;;;;;;6.05;2.47;;;14.80;80.60;;;;;;5029092;28;20195;-86
2022/07/09 04:53:48;;;;;;;4.88;2.17;;;14.80;81.00;;;;;;5021965;28;20495;-86
2022/07/09 04:56:15;;;;;;;3.75;2.20;;;14.80;80.20;;;;;;5036293;28;20198;-86
2022/07/09 04:59:05;;;;;;;6.00;2.10;;;14.80;81.70;;;;;;5030590;28;20207;-86
2022/07/09 05:01:32;;;;;;;5.38;2.20;;;14.80;82.60;;;;;;5020812;28;20223;-86
2022/07/09 05:03:59;;;;;;;4.97;2.20;;;14.90;81.60;;;;;;5025455;28;20579;-86
2022/07/09 05:06:41;;;;;;;3.75;2.33;;;15.00;80.90;;;;;;5029701;28;20195;-86
2022/07/09 05:09:10;;;;;;;6.88;2.05;;;15.00;80.50;;;;;;5027963;28;20188;-86
2022/07/09 05:11:41;;;;;;;2.75;1.92;;;15.10;80.90;;;;;;5027353;28;20198;-86
2022/07/09 05:14:41;;;;;;;5.45;1.98;;;15.30;80.70;;;;;;5025857;28;20202;-86
2022/07/09 05:17:18;;;;;;;2.80;2.03;;;15.30;79.00;;;;;;5029656;28;20203;-87
2022/07/09 05:19:54;;;;;;;2.20;1.83;;;15.30;77.50;;;;;;5019438;28;20261;-87
2022/07/09 05:22:29;;;;;;;3.58;1.90;;;15.40;77.70;;;;;;5024156;28;20211;-90
2022/07/09 05:24:58;;;;;;;4.55;2.00;;;15.50;77.70;;;;;;5037240;28;20258;-85
2022/07/09 05:27:29;;;;;;;3.95;2.10;;;15.60;77.70;;;;;;5034530;28;20202;-84
2022/07/09 05:30:17;;;;;;;4.55;2.17;;;15.60;77.70;;;;;;5026813;28;20198;-84
2022/07/09 05:32:48;;;;;;;3.72;1.88;;;15.60;77.70;;;;;;5020655;28;20631;-86
2022/07/09 05:35:41;;;;;;;2.97;1.95;;;15.70;75.30;;;;;;5026667;28;20205;-87
2022/07/09 05:38:11;;;;;;;3.85;2.10;;;15.70;74.30;;;;;;5021105;28;20207;-85
2022/07/09 05:40:49;;;;;;;4.05;2.30;;;15.70;75.00;;;;;;5031719;28;20672;-85
2022/07/09 05:43:17;;;;;;;3.55;2.03;;;15.90;75.10;;;;;;5030227;28;20201;-84
2022/07/09 05:46:29;;;;;;;2.88;1.80;;;15.90;75.80;;;;;;5029462;28;20199;-85
2022/07/09 05:48:56;;;;;;;3.60;2.10;;;16.00;75.80;;;;;;5031468;28;20565;-85
2022/07/09 05:51:23;;;;;;;4.13;1.80;;;16.10;74.90;;;;;;5034405;28;20202;-85
2022/07/09 05:53:59;;;;;;;3.53;1.70;;;16.20;71.40;;;;;;5022710;28;21465;-89
2022/07/09 05:56:28;;;;;;;3.22;2.13;;;16.40;71.50;;;;;;5029186;28;20199;-86
2022/07/09 05:59:12;;;;;;;2.45;1.95;;;16.40;69.00;;;;;;5035682;28;20210;-86
2022/07/09 06:01:42;;;;;;;2.85;1.98;;;16.60;69.00;;;;;;5034261;28;20222;-84
2022/07/09 06:04:23;;;;;;;3.78;1.92;;;16.80;67.40;;;;;;5032180;28;20278;-85
2022/07/09 06:06:58;;;;;;;2.75;2.00;;;16.80;64.60;;;;;;5032167;28;20195;-86
2022/07/09 06:09:25;;;;;;;5.32;2.10;;;17.00;65.60;;;;;;5026918;28;20227;-88
2022/07/09 06:11:53;;;;;;;4.03;1.95;;;17.10;65.00;;;;;;5023996;28;20203;-87
2022/07/09 06:14:23;;;;;;;3.78;2.08;;;17.00;67.80;;;;;;5027540;28;20199;-87
2022/07/09 06:16:56;;;;;;;3.75;2.30;;;16.90;69.20;;;;;;5027390;28;20206;-86
2022/07/09 06:19:25;;;;;;;4.53;2.20;;;17.10;68.30;;;;;;5032528;28;20206;-87
2022/07/09 06:21:52;;;;;;;4.57;2.10;;;17.10;69.80;;;;;;5028881;28;20219;-87
2022/07/09 06:24:30;;;;;;;3.15;2.03;;;17.20;70.00;;;;;;5018677;28;20195;-88
2022/07/09 06:27:07;;;;;;;5.07;2.50;;;17.30;70.40;;;;;;5029952;28;20650;-83
2022/07/09 06:29:53;;;;;;;4.25;2.22;;;17.40;69.60;;;;;;5037899;28;20254;-85
2022/07/09 06:32:20;;;;;;;5.18;2.03;;;17.30;66.70;;;;;;5036732;28;20305;-85
2022/07/09 06:34:47;;;;;;;4.25;2.10;;;17.60;66.40;;;;;;5036786;28;20218;-84
2022/07/09 06:37:17;;;;;;;6.07;2.40;;;17.70;63.20;;;;;;5031141;28;20199;-83
2022/07/09 06:40:00;;;;;;;5.30;2.28;;;17.90;59.30;;;;;;5037774;28;20195;-83
2022/07/09 06:42:28;;;;;;;3.10;1.90;;;17.90;61.00;;;;;;5034291;28;20284;-83
2022/07/09 06:44:55;;;;;;;2.42;2.05;;;18.10;56.30;;;;;;5032393;28;20895;-87
2022/07/09 06:47:29;;;;;;;5.53;2.20;;;18.10;57.00;;;;;;5032306;28;20207;-83
2022/07/09 06:50:21;;;;;;;5.45;2.17;;;18.10;56.30;;;;;;5033136;28;20210;-83
2022/07/09 06:52:51;;;;;;;5.78;2.05;;;18.00;57.40;;;;;;5031623;28;20202;-83
2022/07/09 06:55:18;;;;;;;2.88;1.95;;;18.20;56.10;;;;;;5034557;28;20201;-84
2022/07/09 06:57:46;;;;;;;4.03;1.95;;;18.20;55.50;;;;;;5038831;28;20195;-83
2022/07/09 07:00:14;;;;;;;4.65;2.05;;;18.30;54.40;;;;;;5035160;28;20271;-84
2022/07/09 07:02:41;;;;;;;6.25;2.05;;;18.30;54.40;;;;;;5035345;28;20218;-84
2022/07/09 07:05:08;;;;;;;5.25;2.47;;;18.30;53.10;;;;;;5041963;28;20225;-84
2022/07/09 07:07:36;;;;;;;3.83;2.08;;;18.30;52.10;;;;;;5038120;28;20673;-84
2022/07/09 07:10:06;;;;;;;5.75;2.58;;;18.30;52.30;;;;;;5039257;28;20202;-86
2022/07/09 07:12:33;;;;;;;28.17;19.90;;;18.30;50.00;;;;;;5037274;28;20571;-83
2022/07/09 07:15:02;;;;;;;3.75;2.03;;;18.50;49.10;;;;;;5041359;28;20202;-87
2022/07/09 07:17:29;;;;;;;10.95;7.05;;;18.40;48.90;;;;;;5031061;28;20323;-83
2022/07/09 07:19:56;;;;;;;8.65;6.25;;;18.40;50.30;;;;;;5043914;28;20206;-84
2022/07/09 07:22:23;;;;;;;6.65;2.20;;;18.50;50.70;;;;;;5039063;28;20227;-86
2022/07/09 07:24:50;;;;;;;6.60;3.45;;;18.50;50.70;;;;;;5031735;28;20254;-85
2022/07/09 07:27:23;;;;;;;10.63;8.48;;;18.50;50.70;;;;;;5032137;28;20198;-84
2022/07/09 07:30:19;;;;;;;4.35;2.00;;;18.70;48.40;;;;;;5033716;28;20266;-88
2022/07/09 07:32:54;;;;;;;9.05;5.35;;;18.60;47.80;;;;;;5028543;28;20289;-85
2022/07/09 07:35:21;;;;;;;8.45;4.45;;;18.70;50.20;;;;;;5039459;28;20182;-85
2022/07/09 07:37:54;;;;;;;4.47;3.25;;;18.80;49.60;;;;;;5033013;28;20202;-84
2022/07/09 07:40:42;;;;;;;7.55;2.30;;;18.90;48.50;;;;;;5041010;28;20298;-84
2022/07/09 07:43:11;;;;;;;7.03;4.57;;;19.00;46.60;;;;;;5033953;28;20286;-84
2022/07/09 07:45:43;;;;;;;3.70;2.15;;;19.10;45.10;;;;;;5039312;28;20252;-85
2022/07/09 07:48:10;;;;;;;5.10;1.90;;;19.20;43.70;;;;;;5036381;28;20206;-86
2022/07/09 07:50:38;;;;;;;7.28;3.85;;;19.10;43.50;;;;;;5034788;28;20259;-84
2022/07/09 07:53:18;;;;;;;4.18;2.13;;;19.20;43.20;;;;;;5034989;28;20205;-84
2022/07/09 07:55:44;;;;;;;5.57;2.80;;;19.40;39.30;;;;;;5035481;28;20199;-85
2022/07/09 07:58:12;;;;;;;7.35;2.90;;;19.40;39.60;;;;;;5031465;28;20202;-85
2022/07/09 08:00:39;;;;;;;5.35;2.50;;;19.40;39.50;;;;;;5027105;28;20221;-85
2022/07/09 08:03:07;;;;;;;4.65;2.30;;;19.70;39.10;;;;;;5028657;28;20214;-84
2022/07/09 08:05:34;;;;;;;6.05;2.65;;;19.70;38.10;;;;;;5035459;28;20208;-85
2022/07/09 08:08:01;;;;;;;4.70;2.40;;;19.90;37.80;;;;;;5034524;28;20206;-85
2022/07/09 08:10:27;;;;;;;3.75;1.98;;;19.90;36.80;;;;;;5028881;28;20213;-86
2022/07/09 08:13:00;;;;;;;3.50;2.00;;;20.00;37.90;;;;;;5021836;28;20205;-87
2022/07/09 08:15:42;;;;;;;4.85;2.03;;;20.20;36.60;;;;;;5033330;28;20209;-85
2022/07/09 08:18:14;;;;;;;4.03;2.20;;;20.30;36.20;;;;;;5025214;28;20207;-85
2022/07/09 08:20:54;;;;;;;3.78;2.03;;;20.40;34.90;;;;;;5030214;28;20199;-85
2022/07/09 08:23:51;;;;;;;2.95;1.73;;;20.60;33.90;;;;;;5033148;28;20233;-85
2022/07/09 08:26:18;;;;;;;4.45;2.10;;;20.70;32.70;;;;;;5028437;28;20197;-86
2022/07/09 08:29:00;;;;;;;5.13;2.20;;;20.80;32.70;;;;;;5032536;28;20190;-86
2022/07/09 08:31:26;;;;;;;4.72;2.03;;;21.20;30.90;;;;;;5033015;28;20187;-84
2022/07/09 08:33:55;;;;;;;4.45;2.00;;;21.60;30.30;;;;;;5035016;28;20211;-82
2022/07/09 08:36:22;;;;;;;3.60;2.20;;;22.00;29.80;;;;;;5029613;28;20273;-81
2022/07/09 08:38:49;;;;;;;3.80;1.98;;;22.70;27.00;;;;;;5030351;28;20294;-85
2022/07/09 08:41:20;;;;;;;7.13;2.03;;;23.80;22.50;;;;;;5034044;28;20289;-83
2022/07/09 08:43:54;;;;;;;3.78;1.92;;;24.20;20.80;;;;;;5030349;28;20202;-84
2022/07/09 08:46:24;;;;;;;3.42;1.67;;;24.10;18.20;;;;;;5029738;28;20198;-84
2022/07/09 08:49:02;;;;;;;29.20;24.58;;;24.10;18.70;;;;;;5029221;28;20237;-84
2022/07/09 08:51:30;;;;;;;16.58;13.80;;;24.80;18.50;;;;;;5024965;28;20274;-84
2022/07/09 08:54:07;;;;;;;6.10;3.35;;;24.90;18.50;;;;;;5026951;28;20198;-84
2022/07/09 08:56:54;;;;;;;16.27;12.45;;;26.30;16.10;;;;;;5032939;28;20194;-82
2022/07/09 08:59:21;;;;;;;26.52;23.70;;;27.70;15.50;;;;;;5033266;28;20638;-82
2022/07/09 09:02:04;;;;;;;3.67;2.20;;;27.70;14.40;;;;;;5034143;28;20685;-82
2022/07/09 09:04:34;;;;;;;3.78;2.40;;;27.80;13.20;;;;;;5036116;28;20190;-82
2022/07/09 09:07:01;;;;;;;15.95;14.25;;;28.20;13.50;;;;;;5035470;28;20264;-85
2022/07/09 09:09:36;;;;;;;8.93;8.02;;;28.10;13.00;;;;;;5026948;28;20244;-82
2022/07/09 09:12:28;;;;;;;4.47;2.90;;;29.30;11.30;;;;;;5024935;28;20206;-84
2022/07/09 09:14:55;;;;;;;3.92;3.42;;;31.10;8.10;;;;;;5027049;28;20198;-84
2022/07/09 09:17:22;;;;;;;4.85;2.80;;;31.40;8.20;;;;;;5031806;28;20198;-84
2022/07/09 09:20:12;;;;;;;4.10;2.92;;;32.10;7.60;;;;;;5033751;28;20289;-86
2022/07/09 09:22:54;;;;;;;6.05;3.42;;;32.70;5.70;;;;;;5030214;28;20231;-84
2022/07/09 09:25:22;;;;;;;4.25;3.83;;;32.70;6.10;;;;;;5034180;28;20205;-84
2022/07/09 09:27:53;;;;;;;4.35;2.92;;;32.10;8.00;;;;;;5041083;28;20676;-84
2022/07/09 09:30:21;;;;;;;5.35;3.10;;;33.20;4.80;;;;;;5037042;28;20197;-84
2022/07/09 09:32:56;;;;;;;5.35;3.42;;;33.70;3.60;;;;;;5037818;28;20229;-83
2022/07/09 09:35:26;;;;;;;5.78;3.15;;;33.50;6.60;;;;;;5040754;28;20553;-83
2022/07/09 09:38:06;;;;;;;4.60;2.90;;;32.60;6.80;;;;;;5029421;28;20333;-84
2022/07/09 09:40:33;;;;;;;4.43;3.28;;;30.50;9.40;;;;;;5031678;28;20190;-84
2022/07/09 09:43:03;;;;;;;4.20;3.17;;;30.80;7.40;;;;;;5034807;28;20237;-85
2022/07/09 09:45:56;;;;;;;3.78;3.42;;;32.20;6.00;;;;;;5024729;28;20205;-85
2022/07/09 09:48:24;;;;;;;3.55;3.20;;;33.50;4.60;;;;;;5025417;28;20804;-84
2022/07/09 09:51:00;;;;;;;3.45;3.15;;;34.30;3.50;;;;;;5019544;28;20198;-85
2022/07/09 09:53:27;;;;;;;3.40;3.10;;;34.30;3.20;;;;;;5026795;28;20566;-85
2022/07/09 09:55:55;;;;;;;4.40;3.50;;;34.50;2.40;;;;;;5024609;28;20745;-85
2022/07/09 09:58:22;;;;;;;3.60;3.20;;;33.70;5.30;;;;;;5029153;28;20205;-85
2022/07/09 10:00:48;;;;;;;4.22;3.45;;;32.90;6.30;;;;;;5034698;28;20214;-85
2022/07/09 10:03:17;;;;;;;4.45;3.42;;;32.10;7.70;;;;;;5034260;28;20712;-85
2022/07/09 10:05:48;;;;;;;3.80;3.30;;;32.20;6.40;;;;;;5028184;28;20213;-84
2022/07/09 10:08:25;;;;;;;3.20;2.90;;;31.20;7.60;;;;;;5029808;28;20197;-82
2022/07/09 10:11:01;;;;;;;5.88;2.80;;;29.80;9.20;;;;;;5031012;28;20199;-84
2022/07/09 10:13:53;;;;;;;3.03;2.40;;;28.60;10.20;;;;;;5020591;28;20339;-83
2022/07/09 10:16:31;;;;;;;3.17;2.00;;;28.10;11.00;;;;;;5025253;28;20198;-84
2022/07/09 10:19:24;;;;;;;3.05;1.90;;;27.80;9.00;;;;;;5027443;28;20732;-82
2022/07/09 10:22:01;;;;;;;2.65;1.98;;;27.50;11.50;;;;;;5027502;28;20217;-82
2022/07/09 10:25:01;;;;;;;3.85;2.28;;;27.30;11.00;;;;;;5029000;28;20205;-80
2022/07/09 10:27:48;;;;;;;2.80;1.83;;;27.60;11.10;;;;;;5030429;28;20195;-80
2022/07/09 10:30:28;;;;;;;3.30;1.95;;;27.70;10.70;;;;;;5032771;28;20195;-82
2022/07/09 10:33:24;;;;;;;3.58;1.85;;;28.00;11.30;;;;;;5035825;28;20234;-81
2022/07/09 10:35:52;;;;;;;4.32;2.05;;;27.10;12.00;;;;;;5034205;28;20194;-83
2022/07/09 10:38:35;;;;;;;4.65;1.90;;;26.90;13.60;;;;;;5032004;28;20190;-82
2022/07/09 10:41:04;;;;;;;4.00;1.88;;;26.10;15.60;;;;;;5030782;28;20194;-80
2022/07/09 10:43:51;;;;;;;2.78;2.00;;;25.70;14.60;;;;;;5032512;28;20492;-81
2022/07/09 10:46:43;;;;;;;3.35;2.00;;;25.60;14.40;;;;;;5027532;28;20221;-81
2022/07/09 10:49:25;;;;;;;3.75;1.92;;;25.10;15.70;;;;;;5025169;28;20201;-81
2022/07/09 10:51:57;;;;;;;4.43;1.88;;;24.70;15.40;;;;;;5032253;28;20218;-81
2022/07/09 10:54:57;;;;;;;4.93;1.92;;;24.60;16.10;;;;;;5022466;28;20224;-80
2022/07/09 10:57:31;;;;;;;3.30;1.90;;;24.90;18.70;;;;;;4948708;29;20196;-81
2022/07/09 11:00:15;;;;;;;4.20;1.83;;;25.40;19.30;;;;;;5012085;28;20209;-82
2022/07/09 11:02:56;;;;;;;3.60;1.98;;;26.90;15.10;;;;;;5029489;28;20245;-81
2022/07/09 11:05:45;;;;;;;2.33;1.90;;;27.10;12.50;;;;;;5030516;28;20260;-82
2022/07/09 11:08:12;;;;;;;3.88;1.98;;;26.90;14.00;;;;;;5025841;28;20198;-81
2022/07/09 11:10:42;;;;;;;3.50;1.85;;;26.30;13.20;;;;;;5025007;28;20233;-81
2022/07/09 11:13:26;;;;;;;3.10;1.95;;;26.40;14.90;;;;;;5020407;28;20201;-82
2022/07/09 11:16:01;;;;;;;4.18;2.03;;;26.60;14.90;;;;;;5018958;28;20198;-81
2022/07/09 11:18:29;;;;;;;4.22;1.90;;;26.80;13.30;;;;;;5031114;28;20194;-86
2022/07/09 11:21:29;;;;;;;3.90;1.80;;;26.60;11.90;;;;;;5021446;28;20213;-84
2022/07/09 11:24:14;;;;;;;5.53;4.25;;;27.00;11.20;;;;;;5032707;28;20224;-81
2022/07/09 11:26:54;;;;;;;26.20;20.85;;;26.50;13.00;;;;;;5024195;28;20199;-80
2022/07/09 11:29:25;;;;;;;3.95;2.05;;;26.40;14.80;;;;;;5031329;28;20204;-81
2022/07/09 11:31:53;;;;;;;6.80;3.78;;;26.50;12.00;;;;;;5024662;28;20221;-81
2022/07/09 11:34:30;;;;;;;3.25;2.08;;;26.20;13.60;;;;;;5030768;28;20198;-87
2022/07/09 11:36:58;;;;;;;29.23;26.55;;;26.00;14.60;;;;;;5030771;28;20198;-80
2022/07/09 11:39:27;;;;;;;7.97;1.98;;;26.00;14.60;;;;;;5031551;28;20197;-81
2022/07/09 11:42:01;;;;;;;4.15;1.88;;;25.70;14.50;;;;;;5029219;28;20202;-81
2022/07/09 11:44:54;;;;;;;6.05;5.40;;;25.60;16.80;;;;;;5021110;28;20195;-81
2022/07/09 11:47:31;;;;;;;7.80;6.43;;;25.70;14.50;;;;;;5027534;28;20217;-81
2022/07/09 11:50:06;;;;;;;13.57;11.02;;;25.70;14.50;;;;;;5030021;28;20209;-80
2022/07/09 11:52:36;;;;;;;7.57;6.82;;;25.60;14.40;;;;;;5031168;28;20202;-82
2022/07/09 11:55:15;;;;;;;18.00;16.13;;;25.80;16.20;;;;;;5027722;28;20202;-81
2022/07/09 11:57:53;;;;;;;12.93;10.05;;;26.00;14.60;;;;;;5027303;28;20572;-80
2022/07/09 12:00:27;;;;;;;3.63;1.58;;;26.20;14.80;;;;;;5028691;28;20202;-83
2022/07/09 12:03:06;;;;;;;24.15;21.70;;;25.60;13.20;;;;;;5032225;28;20214;-82
2022/07/09 12:05:38;;;;;;;9.07;1.88;;;25.10;14.20;;;;;;5033706;28;20194;-81
2022/07/09 12:08:12;;;;;;;22.13;19.90;;;24.90;15.10;;;;;;5030165;28;20600;-81
2022/07/09 12:11:05;;;;;;;3.92;2.00;;;25.00;15.80;;;;;;5025705;28;20191;-82
2022/07/09 12:13:36;;;;;;;5.38;4.55;;;25.20;16.30;;;;;;5033585;28;20206;-80
2022/07/09 12:16:05;;;;;;;8.25;7.40;;;25.50;15.50;;;;;;5033833;28;20195;-81
2022/07/09 12:18:36;;;;;;;9.43;7.80;;;25.50;14.40;;;;;;5024208;28;20206;-80
2022/07/09 12:21:06;;;;;;;4.70;2.58;;;25.80;17.30;;;;;;5024818;28;20195;-80
2022/07/09 12:23:33;;;;;;;4.25;2.22;;;25.90;14.60;;;;;;5032663;28;20726;-80
2022/07/09 12:26:18;;;;;;;6.35;4.15;;;25.90;14.60;;;;;;5029708;28;20194;-81
2022/07/09 12:28:48;;;;;;;8.07;6.85;;;26.20;14.70;;;;;;5029579;28;20209;-81
2022/07/09 12:31:25;;;;;;;7.47;6.53;;;26.60;15.00;;;;;;5032174;28;20730;-81
2022/07/09 12:33:54;;;;;;;6.65;2.10;;;26.80;15.00;;;;;;5029804;28;20194;-80
2022/07/09 12:36:24;;;;;;;4.55;1.67;;;26.80;11.80;;;;;;5036675;28;20190;-82
2022/07/09 12:38:51;;;;;;;2.90;2.00;;;26.60;13.00;;;;;;5042647;28;20256;-86
2022/07/09 12:41:18;;;;;;;3.78;2.00;;;26.40;17.00;;;;;;5041696;28;20266;-82
2022/07/09 12:43:54;;;;;;;7.93;5.97;;;26.10;15.60;;;;;;5043956;28;20241;-81
2022/07/09 12:46:21;;;;;;;7.38;6.57;;;26.10;14.70;;;;;;5028607;28;20526;-82
2022/07/09 12:48:49;;;;;;;4.43;3.47;;;26.40;13.30;;;;;;5027738;28;20199;-81
2022/07/09 12:51:16;;;;;;;5.85;4.53;;;26.20;14.10;;;;;;5032561;28;20205;-82
2022/07/09 12:54:17;;;;;;;4.70;3.25;;;26.10;14.70;;;;;;5028004;28;20258;-82
2022/07/09 12:57:05;;;;;;;2.40;1.60;;;26.10;12.90;;;;;;5021649;28;20220;-82
2022/07/09 12:59:36;;;;;;;8.63;7.55;;;25.70;14.50;;;;;;5029555;28;20546;-81
2022/07/09 13:02:06;;;;;;;4.70;4.20;;;25.50;16.20;;;;;;5031954;28;20569;-82
2022/07/09 13:04:35;;;;;;;4.25;2.17;;;25.60;14.40;;;;;;5021360;28;20211;-81
2022/07/09 13:07:03;;;;;;;2.35;1.52;;;25.60;14.40;;;;;;5033988;28;20198;-82
2022/07/09 13:09:30;;;;;;;4.65;3.33;;;25.40;14.30;;;;;;5037123;28;20225;-81
2022/07/09 13:12:00;;;;;;;1.95;1.45;;;25.60;14.40;;;;;;5026330;28;20203;-81
2022/07/09 13:14:30;;;;;;;7.38;5.22;;;25.40;13.10;;;;;;5030048;28;20198;-81
2022/07/09 13:16:57;;;;;;;2.33;1.80;;;25.40;14.40;;;;;;5029417;28;20198;-81
2022/07/09 13:19:32;;;;;;;7.63;5.15;;;25.20;15.30;;;;;;5030610;28;20203;-80
2022/07/09 13:22:03;;;;;;;2.97;1.92;;;25.30;14.30;;;;;;5033003;28;20285;-80
2022/07/09 13:24:30;;;;;;;4.32;2.60;;;25.40;14.30;;;;;;5037808;28;20246;-80
2022/07/09 13:27:09;;;;;;;2.85;2.00;;;25.30;14.30;;;;;;5026669;28;20206;-77
2022/07/09 13:29:36;;;;;;;2.65;1.70;;;25.60;15.30;;;;;;5022942;28;20206;-80
2022/07/09 13:32:04;;;;;;;2.47;1.52;;;25.60;14.40;;;;;;5024146;28;20234;-80
2022/07/09 13:34:48;;;;;;;3.10;1.70;;;25.50;14.40;;;;;;5026626;28;20286;-79
2022/07/09 13:37:33;;;;;;;4.65;1.70;;;25.30;14.90;;;;;;5021338;28;20205;-79
2022/07/09 13:40:00;;;;;;;3.10;1.70;;;24.90;15.90;;;;;;5023484;28;20210;-79
2022/07/09 13:42:30;;;;;;;2.47;1.80;;;24.80;14.80;;;;;;5029251;28;20210;-83
2022/07/09 13:45:00;;;;;;;3.13;1.70;;;24.70;16.40;;;;;;5025713;28;20227;-82
2022/07/09 13:47:36;;;;;;;2.13;1.58;;;24.70;15.80;;;;;;5030263;28;20201;-80
2022/07/09 13:50:12;;;;;;;3.40;1.50;;;24.70;16.50;;;;;;5024158;28;20203;-81